Time;durP1;ratioP1;P1;durP2;ratioP2;P2;SDS_P1;SDS_P2;PMS_P1;PMS_P2;Temp;Humidity;BMP_temperature;BMP_pressure;BME280_temperature;BME280_humidity;BME280_pressure;Samples;Min_cycle;Max_cycle;Signal;HPM_P1;HPM_P2
2021/09/24 00:00:27;;;;;;;4.93;1.80;;;15.40;84.70;;;;;;5065721;28;20070;-70
2021/09/24 00:02:53;;;;;;;3.95;1.40;;;15.50;84.30;;;;;;5067832;28;20047;-70
2021/09/24 00:05:19;;;;;;;2.42;1.30;;;15.50;84.00;;;;;;5072125;28;20024;-70
2021/09/24 00:07:45;;;;;;;1.85;1.05;;;15.50;83.70;;;;;;5070194;28;20028;-70
2021/09/24 00:10:12;;;;;;;1.23;0.70;;;15.40;83.30;;;;;;5068089;28;20021;-69
2021/09/24 00:12:38;;;;;;;3.53;1.08;;;15.30;82.50;;;;;;5071827;28;20052;-69
2021/09/24 00:15:07;;;;;;;3.17;1.20;;;15.30;82.30;;;;;;5065256;28;20029;-69
2021/09/24 00:17:33;;;;;;;2.28;1.00;;;15.30;81.80;;;;;;5071381;28;20029;-69
2021/09/24 00:19:58;;;;;;;3.80;0.95;;;15.20;81.10;;;;;;5068977;28;20517;-69
2021/09/24 00:22:24;;;;;;;3.67;1.75;;;15.20;80.10;;;;;;5068042;28;20539;-69
2021/09/24 00:24:49;;;;;;;3.03;0.80;;;15.40;79.90;;;;;;5069250;28;20467;-70
2021/09/24 00:27:15;;;;;;;7.00;1.33;;;15.40;79.30;;;;;;5071492;28;20048;-70
2021/09/24 00:29:41;;;;;;;5.60;1.33;;;15.40;78.90;;;;;;5068734;28;20070;-69
2021/09/24 00:32:06;;;;;;;3.60;0.80;;;15.30;78.80;;;;;;5070757;28;20029;-69
2021/09/24 00:34:32;;;;;;;4.03;1.00;;;15.20;79.30;;;;;;5068766;28;20509;-71
2021/09/24 00:36:58;;;;;;;4.93;1.02;;;15.40;78.40;;;;;;5061900;28;20032;-70
2021/09/24 00:39:24;;;;;;;6.03;1.02;;;15.20;78.70;;;;;;5066105;28;20040;-70
2021/09/24 00:41:49;;;;;;;5.15;1.30;;;15.20;79.10;;;;;;5071666;28;20020;-68
2021/09/24 00:44:15;;;;;;;5.28;1.77;;;15.10;79.40;;;;;;5071051;28;20107;-69
2021/09/24 00:46:40;;;;;;;8.10;1.25;;;15.10;79.00;;;;;;5070249;28;20163;-70
2021/09/24 00:49:06;;;;;;;3.20;1.10;;;15.20;78.40;;;;;;5070094;28;20028;-70
2021/09/24 00:51:32;;;;;;;2.47;0.77;;;15.10;78.70;;;;;;5070317;28;20489;-69
2021/09/24 00:53:57;;;;;;;3.97;1.00;;;15.20;78.10;;;;;;5062229;28;20029;-70
2021/09/24 00:56:24;;;;;;;3.33;0.93;;;15.10;78.40;;;;;;5071446;28;20110;-71
2021/09/24 00:58:50;;;;;;;7.47;1.17;;;15.20;77.70;;;;;;5070369;28;20025;-69
2021/09/24 01:01:15;;;;;;;7.63;1.08;;;15.10;78.00;;;;;;5068791;28;20078;-71
2021/09/24 01:03:41;;;;;;;4.57;0.90;;;15.20;78.10;;;;;;5069683;28;20466;-70
2021/09/24 01:06:07;;;;;;;5.90;1.38;;;15.10;78.20;;;;;;5070113;28;20520;-70
2021/09/24 01:08:32;;;;;;;5.15;0.93;;;15.20;77.90;;;;;;5067745;28;20547;-70
2021/09/24 01:10:59;;;;;;;6.10;1.65;;;15.20;78.60;;;;;;5071873;28;20024;-70
2021/09/24 01:13:25;;;;;;;4.95;1.38;;;15.30;77.60;;;;;;5074221;28;20029;-70
2021/09/24 01:15:50;;;;;;;3.83;1.27;;;15.30;77.30;;;;;;5074459;28;20098;-70
2021/09/24 01:18:16;;;;;;;5.10;1.42;;;15.30;76.90;;;;;;5072575;28;20033;-71
2021/09/24 01:20:41;;;;;;;3.72;1.10;;;15.20;77.30;;;;;;5073390;28;20025;-69
2021/09/24 01:23:07;;;;;;;4.43;1.40;;;15.20;77.50;;;;;;5073479;28;20382;-69
2021/09/24 01:25:32;;;;;;;6.28;1.50;;;15.10;77.90;;;;;;5073995;28;20040;-69
2021/09/24 01:27:58;;;;;;;6.60;2.03;;;15.10;77.90;;;;;;5082458;28;20033;-70
2021/09/24 01:30:24;;;;;;;6.07;1.73;;;15.20;77.30;;;;;;5072067;28;20111;-69
2021/09/24 01:32:50;;;;;;;6.28;1.40;;;15.20;77.30;;;;;;5073923;28;20510;-69
2021/09/24 01:35:16;;;;;;;8.07;1.85;;;15.30;77.10;;;;;;5074815;28;20024;-69
2021/09/24 01:37:42;;;;;;;7.50;1.90;;;15.20;77.10;;;;;;5072273;28;20020;-69
2021/09/24 01:40:19;;;;;;;7.22;2.15;;;15.20;76.30;;;;;;5074337;28;20039;-69
2021/09/24 01:42:46;;;;;;;5.18;2.00;;;15.10;76.70;;;;;;5073927;28;20028;-69
2021/09/24 01:45:12;;;;;;;7.05;2.13;;;15.00;77.50;;;;;;5070620;28;20474;-70
2021/09/24 01:47:38;;;;;;;11.40;2.38;;;15.10;77.10;;;;;;5065711;28;20029;-69
2021/09/24 01:50:05;;;;;;;10.73;2.17;;;15.20;76.60;;;;;;5071220;28;20513;-69
2021/09/24 01:52:31;;;;;;;6.85;2.15;;;15.00;76.80;;;;;;5072107;28;20117;-69
2021/09/24 01:54:57;;;;;;;10.25;2.50;;;15.00;77.20;;;;;;5073805;28;20028;-69
2021/09/24 01:57:23;;;;;;;6.85;1.77;;;15.00;77.10;;;;;;5065802;28;20052;-71
2021/09/24 01:59:49;;;;;;;10.57;3.35;;;15.00;77.30;;;;;;5067107;28;20032;-69
2021/09/24 02:02:14;;;;;;;5.80;1.80;;;15.00;76.90;;;;;;5072254;28;20104;-70
2021/09/24 02:04:40;;;;;;;9.20;3.17;;;15.10;77.20;;;;;;5073421;28;20028;-69
2021/09/24 02:07:06;;;;;;;9.98;2.90;;;15.10;76.40;;;;;;5071602;28;20035;-70
2021/09/24 02:09:32;;;;;;;7.97;2.78;;;15.00;77.40;;;;;;5072046;28;20064;-69
2021/09/24 02:11:58;;;;;;;6.15;2.17;;;14.90;77.40;;;;;;5071552;28;20055;-69
2021/09/24 02:14:24;;;;;;;6.22;2.33;;;14.80;77.60;;;;;;5073543;28;20050;-69
2021/09/24 02:16:49;;;;;;;7.88;3.10;;;14.80;78.30;;;;;;5071415;28;20043;-69
2021/09/24 02:19:15;;;;;;;8.77;2.88;;;14.70;78.30;;;;;;5073168;28;20028;-70
2021/09/24 02:21:40;;;;;;;7.05;2.35;;;14.60;78.20;;;;;;5072817;28;20032;-70
2021/09/24 02:24:06;;;;;;;9.55;3.42;;;14.50;78.10;;;;;;5071948;28;20021;-68
2021/09/24 02:26:31;;;;;;;6.00;2.20;;;14.50;79.00;;;;;;5075556;28;21934;-68
2021/09/24 02:28:57;;;;;;;9.50;3.03;;;14.50;78.60;;;;;;5072947;28;20017;-69
2021/09/24 02:31:23;;;;;;;9.32;2.92;;;14.40;79.00;;;;;;5067015;28;20040;-67
2021/09/24 02:33:48;;;;;;;15.70;3.65;;;14.40;79.40;;;;;;5071544;28;20107;-68
2021/09/24 02:36:14;;;;;;;10.35;3.20;;;14.50;77.90;;;;;;5073373;28;20039;-68
2021/09/24 02:38:39;;;;;;;8.88;2.58;;;14.60;77.20;;;;;;5072018;28;20036;-69
2021/09/24 02:41:05;;;;;;;9.20;2.53;;;14.60;77.40;;;;;;5071669;28;20112;-68
2021/09/24 02:43:32;;;;;;;9.60;2.97;;;14.60;76.80;;;;;;5071181;28;20025;-68
2021/09/24 02:45:58;;;;;;;8.02;2.55;;;14.70;76.70;;;;;;5068074;28;20020;-68
2021/09/24 02:48:23;;;;;;;11.65;3.45;;;14.70;77.00;;;;;;5070854;28;20028;-68
2021/09/24 02:50:49;;;;;;;5.70;2.13;;;14.80;76.50;;;;;;5071511;28;20498;-68
2021/09/24 02:53:14;;;;;;;9.82;3.53;;;14.70;76.70;;;;;;5072501;28;20031;-68
2021/09/24 02:55:40;;;;;;;5.65;2.75;;;14.80;76.70;;;;;;5072968;28;20041;-68
2021/09/24 02:58:06;;;;;;;9.75;2.95;;;14.70;77.40;;;;;;5073177;28;20028;-68
2021/09/24 03:00:31;;;;;;;7.25;2.95;;;14.70;77.40;;;;;;5070614;28;20033;-67
2021/09/24 03:02:57;;;;;;;11.18;3.03;;;14.70;77.50;;;;;;5086840;28;20029;-68
2021/09/24 03:05:22;;;;;;;7.43;3.08;;;14.70;77.00;;;;;;5071028;28;20031;-68
2021/09/24 03:07:50;;;;;;;6.28;2.90;;;14.80;76.90;;;;;;5071037;28;20041;-68
2021/09/24 03:10:16;;;;;;;9.93;3.33;;;14.80;75.90;;;;;;5070315;28;20040;-68
2021/09/24 03:12:42;;;;;;;12.95;5.15;;;14.80;75.70;;;;;;5071878;28;20024;-67
2021/09/24 03:15:10;;;;;;;19.63;4.88;;;14.70;75.60;;;;;;5069882;28;20081;-69
2021/09/24 03:17:36;;;;;;;17.02;4.75;;;14.80;75.10;;;;;;5072033;28;20032;-68
2021/09/24 03:20:04;;;;;;;9.82;3.17;;;14.80;74.80;;;;;;5071026;28;20523;-68
2021/09/24 03:22:30;;;;;;;15.63;4.47;;;14.80;75.10;;;;;;5071527;28;20393;-68
2021/09/24 03:24:56;;;;;;;16.27;5.05;;;14.70;74.80;;;;;;5072262;28;20016;-69
2021/09/24 03:27:21;;;;;;;22.95;9.27;;;14.70;75.30;;;;;;5075467;28;20108;-68
2021/09/24 03:29:47;;;;;;;11.32;5.10;;;14.60;75.60;;;;;;5070989;28;20085;-67
2021/09/24 03:32:13;;;;;;;10.63;3.50;;;14.60;76.10;;;;;;5066051;28;20104;-69
2021/09/24 03:34:39;;;;;;;20.10;8.15;;;14.80;76.00;;;;;;5072711;28;20108;-68
2021/09/24 03:37:05;;;;;;;9.98;4.03;;;14.80;75.40;;;;;;5070331;28;20456;-68
2021/09/24 03:39:30;;;;;;;12.88;5.05;;;14.80;75.20;;;;;;5069168;28;20115;-69
2021/09/24 03:41:56;;;;;;;14.07;4.20;;;14.80;75.90;;;;;;5072653;28;20012;-68
2021/09/24 03:44:22;;;;;;;21.55;3.80;;;14.70;75.20;;;;;;5062056;28;20032;-68
2021/09/24 03:46:47;;;;;;;13.07;3.95;;;14.80;74.90;;;;;;5067198;28;20024;-68
2021/09/24 03:49:13;;;;;;;15.95;4.13;;;14.70;75.20;;;;;;5069578;28;20048;-69
2021/09/24 03:51:38;;;;;;;7.82;3.63;;;14.80;75.30;;;;;;5070776;28;20573;-68
2021/09/24 03:54:05;;;;;;;10.27;3.30;;;14.80;75.10;;;;;;5071253;28;20032;-68
2021/09/24 03:56:30;;;;;;;11.85;4.05;;;14.80;74.60;;;;;;5069012;28;20025;-68
2021/09/24 03:58:56;;;;;;;11.75;4.22;;;14.80;74.60;;;;;;5068362;28;20099;-68
2021/09/24 04:01:21;;;;;;;17.52;4.35;;;14.70;74.90;;;;;;5067725;28;20036;-69
2021/09/24 04:03:47;;;;;;;11.07;3.65;;;14.60;74.50;;;;;;5070529;28;20025;-68
2021/09/24 04:06:13;;;;;;;12.02;3.30;;;14.60;74.90;;;;;;5065372;28;20035;-68
2021/09/24 04:08:38;;;;;;;18.10;3.88;;;14.50;74.70;;;;;;5070850;28;20105;-68
2021/09/24 04:11:04;;;;;;;13.10;3.63;;;14.60;74.60;;;;;;5068802;28;20040;-68
2021/09/24 04:13:30;;;;;;;11.80;3.60;;;14.50;75.10;;;;;;5069878;28;20036;-69
2021/09/24 04:15:55;;;;;;;12.57;3.28;;;14.50;75.10;;;;;;5070320;28;20028;-68
2021/09/24 04:18:21;;;;;;;20.75;3.85;;;14.50;74.50;;;;;;5069233;28;20082;-68
2021/09/24 04:20:47;;;;;;;15.23;3.42;;;14.30;74.80;;;;;;5090542;22;20040;-67
2021/09/24 04:23:16;;;;;;;10.82;3.22;;;14.20;75.80;;;;;;5049002;28;20053;-67
2021/09/24 04:25:42;;;;;;;12.70;3.80;;;14.10;77.00;;;;;;5049493;28;20074;-67
2021/09/24 04:28:08;;;;;;;12.23;4.32;;;14.00;75.90;;;;;;5048743;28;20064;-67
2021/09/24 04:30:33;;;;;;;12.20;3.65;;;14.00;77.40;;;;;;5049630;28;20035;-67
2021/09/24 04:32:59;;;;;;;11.80;3.33;;;13.80;76.80;;;;;;5046663;28;20355;-67
2021/09/24 04:35:25;;;;;;;13.32;3.88;;;13.60;77.60;;;;;;5044567;28;20037;-67
2021/09/24 04:37:51;;;;;;;10.93;3.55;;;13.50;77.90;;;;;;5049342;28;20041;-67
2021/09/24 04:40:17;;;;;;;14.68;3.85;;;13.40;78.70;;;;;;5050030;28;20068;-67
2021/09/24 04:42:43;;;;;;;18.58;4.35;;;13.30;78.80;;;;;;5048518;28;20053;-66
2021/09/24 04:45:09;;;;;;;13.90;4.45;;;13.20;79.20;;;;;;5045913;28;20017;-66
2021/09/24 04:47:35;;;;;;;10.57;3.97;;;13.10;79.60;;;;;;5051422;28;20029;-66
2021/09/24 04:50:02;;;;;;;18.30;4.28;;;13.00;79.80;;;;;;5045860;28;20032;-66
2021/09/24 04:52:27;;;;;;;21.15;4.28;;;13.10;79.40;;;;;;5045353;28;20750;-66
2021/09/24 04:54:53;;;;;;;16.75;4.20;;;13.00;79.70;;;;;;5050519;28;20099;-67
2021/09/24 04:57:19;;;;;;;12.18;4.07;;;13.00;80.20;;;;;;5048615;28;20102;-66
2021/09/24 04:59:44;;;;;;;10.43;4.07;;;12.90;79.90;;;;;;5049901;28;20025;-67
2021/09/24 05:02:11;;;;;;;17.15;3.75;;;12.90;80.10;;;;;;5046756;28;20074;-66
2021/09/24 05:04:37;;;;;;;10.07;3.30;;;12.80;80.20;;;;;;5045708;28;20035;-66
2021/09/24 05:07:02;;;;;;;16.52;3.85;;;12.90;80.40;;;;;;5049086;28;20025;-68
2021/09/24 05:09:28;;;;;;;15.93;4.07;;;12.90;80.10;;;;;;5048679;28;20037;-67
2021/09/24 05:11:54;;;;;;;15.23;3.65;;;12.90;80.00;;;;;;5045746;28;20092;-67
2021/09/24 05:14:19;;;;;;;17.10;4.70;;;12.90;79.60;;;;;;5045716;28;20394;-67
2021/09/24 05:16:45;;;;;;;13.65;4.13;;;13.00;79.50;;;;;;5046722;28;20028;-67
2021/09/24 05:19:10;;;;;;;12.13;3.78;;;13.10;79.50;;;;;;5045037;28;20131;-66
2021/09/24 05:21:36;;;;;;;17.80;3.63;;;13.20;78.60;;;;;;5046914;28;20505;-67
2021/09/24 05:24:03;;;;;;;16.98;4.15;;;13.20;78.30;;;;;;5044614;28;20025;-67
2021/09/24 05:26:29;;;;;;;24.88;4.72;;;13.50;78.30;;;;;;5043520;28;20029;-67
2021/09/24 05:28:55;;;;;;;28.08;4.88;;;13.60;77.50;;;;;;5044339;28;20024;-67
2021/09/24 05:31:21;;;;;;;22.50;3.75;;;13.70;76.70;;;;;;5045448;28;20714;-67
2021/09/24 05:33:46;;;;;;;13.23;4.05;;;13.70;76.80;;;;;;5047245;28;20092;-67
2021/09/24 05:36:12;;;;;;;11.82;3.97;;;13.70;76.30;;;;;;5049098;28;20039;-67
2021/09/24 05:38:39;;;;;;;19.02;4.95;;;13.70;76.10;;;;;;5047124;28;20025;-67
2021/09/24 05:41:05;;;;;;;10.35;3.72;;;13.70;76.00;;;;;;5034734;28;20104;-67
2021/09/24 05:43:31;;;;;;;23.92;4.78;;;13.80;76.10;;;;;;5050076;28;20040;-70
2021/09/24 05:45:56;;;;;;;16.45;4.00;;;14.00;75.70;;;;;;5048823;28;20037;-69
2021/09/24 05:48:22;;;;;;;19.13;4.43;;;14.10;75.50;;;;;;5044124;28;20032;-68
2021/09/24 05:50:47;;;;;;;18.48;4.28;;;14.30;75.20;;;;;;5046304;28;20437;-68
2021/09/24 05:53:13;;;;;;;14.65;4.18;;;14.40;76.10;;;;;;5036193;28;20025;-70
2021/09/24 05:55:39;;;;;;;14.30;3.95;;;14.40;75.50;;;;;;5045577;28;20028;-71
2021/09/24 05:58:05;;;;;;;15.52;4.07;;;14.50;75.40;;;;;;5048533;28;20021;-67
2021/09/24 06:00:30;;;;;;;15.73;4.03;;;14.50;75.60;;;;;;5051884;28;20039;-67
2021/09/24 06:02:56;;;;;;;19.27;4.07;;;14.60;75.00;;;;;;5049148;28;20029;-67
2021/09/24 06:05:22;;;;;;;12.00;3.47;;;;;;;;;;5050150;28;20021;-67
2021/09/24 06:07:48;;;;;;;13.85;4.20;;;;;;;;;;5051006;28;20021;-69
2021/09/24 06:10:16;;;;;;;13.90;2.75;;;16.30;71.10;;;;;;5056465;28;20048;-66
2021/09/24 06:12:44;;;;;;;11.82;3.42;;;16.60;68.90;;;;;;5051148;28;20024;-66
2021/09/24 06:15:11;;;;;;;19.35;3.90;;;17.60;65.30;;;;;;5056486;28;20029;-66
2021/09/24 06:17:37;;;;;;;10.85;3.53;;;18.70;64.40;;;;;;5050872;28;20025;-67
2021/09/24 06:20:03;;;;;;;6.18;2.15;;;19.50;58.80;;;;;;5054493;28;20074;-66
2021/09/24 06:22:30;;;;;;;8.68;2.60;;;20.30;56.80;;;;;;5051804;28;20148;-67
2021/09/24 06:24:55;;;;;;;6.60;2.10;;;21.30;52.90;;;;;;5065970;28;20040;-68
2021/09/24 06:27:21;;;;;;;6.43;2.42;;;22.70;49.90;;;;;;5048378;28;20567;-67
2021/09/24 06:29:49;;;;;;;13.27;2.42;;;23.00;48.90;;;;;;5050641;28;20047;-66
2021/09/24 06:32:16;;;;;;;6.05;1.55;;;22.90;47.30;;;;;;5043496;28;20057;-67
2021/09/24 06:34:43;;;;;;;9.45;2.13;;;22.50;47.50;;;;;;5048746;28;20036;-67
2021/09/24 06:37:09;;;;;;;4.72;1.90;;;22.20;47.80;;;;;;5056602;28;20069;-66
2021/09/24 06:39:35;;;;;;;7.72;2.20;;;22.00;49.80;;;;;;5046004;28;20108;-66
2021/09/24 06:42:00;;;;;;;6.03;2.03;;;21.90;49.60;;;;;;5037124;28;20092;-67
2021/09/24 06:44:26;;;;;;;8.48;2.25;;;22.30;47.60;;;;;;5047424;28;20078;-67
2021/09/24 06:46:51;;;;;;;12.88;2.15;;;21.90;48.90;;;;;;5048757;28;20036;-66
2021/09/24 06:49:20;;;;;;;6.57;1.88;;;22.00;49.10;;;;;;5050539;28;20021;-67
2021/09/24 06:51:46;;;;;;;6.97;2.00;;;22.50;48.20;;;;;;5049934;28;20024;-66
2021/09/24 06:54:11;;;;;;;8.43;2.17;;;23.20;45.80;;;;;;5046512;28;20092;-66
2021/09/24 06:56:37;;;;;;;7.13;2.05;;;23.50;45.50;;;;;;5043640;28;20055;-66
2021/09/24 06:59:02;;;;;;;13.25;2.72;;;23.20;46.40;;;;;;5047497;28;20060;-67
2021/09/24 07:01:28;;;;;;;7.05;2.15;;;23.20;44.90;;;;;;5042876;28;20030;-67
2021/09/24 07:03:54;;;;;;;6.95;2.28;;;23.50;44.50;;;;;;5043752;28;20028;-67
2021/09/24 07:06:20;;;;;;;11.70;2.28;;;23.50;45.10;;;;;;5051901;28;20028;-66
2021/09/24 07:08:45;;;;;;;8.05;2.10;;;23.30;44.90;;;;;;5048628;28;20025;-66
2021/09/24 07:11:11;;;;;;;8.75;2.35;;;23.50;45.00;;;;;;5047110;28;20448;-67
2021/09/24 07:13:37;;;;;;;7.00;2.15;;;23.10;45.90;;;;;;5050606;28;20033;-67
2021/09/24 07:16:04;;;;;;;7.35;2.30;;;22.90;47.40;;;;;;5045301;28;20036;-66
2021/09/24 07:18:29;;;;;;;10.30;2.25;;;22.80;47.30;;;;;;5044904;28;20035;-67
2021/09/24 07:20:55;;;;;;;8.23;2.17;;;22.30;47.90;;;;;;5055576;28;20030;-67
2021/09/24 07:23:21;;;;;;;12.00;2.58;;;21.80;47.80;;;;;;5050534;28;20021;-67
2021/09/24 07:25:48;;;;;;;7.93;2.40;;;21.60;49.00;;;;;;5052297;28;20039;-67
2021/09/24 07:28:14;;;;;;;9.65;2.33;;;21.40;50.30;;;;;;5057120;28;20017;-66
2021/09/24 07:30:39;;;;;;;10.50;2.30;;;21.40;50.60;;;;;;5053597;28;20050;-67
2021/09/24 07:33:05;;;;;;;8.38;2.13;;;21.20;50.60;;;;;;5062350;28;20029;-66
2021/09/24 07:35:30;;;;;;;13.20;2.80;;;21.30;51.50;;;;;;5047860;28;20036;-67
2021/09/24 07:37:56;;;;;;;10.63;2.60;;;21.10;50.80;;;;;;5049023;28;20102;-69
2021/09/24 07:40:21;;;;;;;9.27;2.38;;;20.80;50.60;;;;;;5051198;28;20520;-70
2021/09/24 07:42:47;;;;;;;10.70;2.85;;;20.60;52.10;;;;;;5050664;28;20036;-71
2021/09/24 07:45:13;;;;;;;13.52;2.50;;;20.00;53.70;;;;;;5046153;28;20030;-71
2021/09/24 07:47:38;;;;;;;12.80;3.05;;;19.80;54.40;;;;;;5054385;28;20095;-69
2021/09/24 07:50:04;;;;;;;9.48;2.35;;;19.60;56.10;;;;;;5049256;28;20103;-68
2021/09/24 07:52:31;;;;;;;10.77;2.30;;;19.70;55.80;;;;;;5052667;28;20029;-73
2021/09/24 07:54:57;;;;;;;329.65;258.85;;;20.30;54.30;;;;;;5052341;28;20017;-73
2021/09/24 07:57:23;;;;;;;66.47;35.63;;;20.80;53.40;;;;;;5054484;28;20513;-72
2021/09/24 07:59:48;;;;;;;57.40;26.02;;;21.60;51.00;;;;;;5057737;28;20032;-71
2021/09/24 08:02:14;;;;;;;26.73;13.43;;;21.90;50.20;;;;;;5051399;28;20024;-70
2021/09/24 08:04:39;;;;;;;10.38;4.13;;;21.90;49.80;;;;;;5050287;28;20458;-71
2021/09/24 08:07:06;;;;;;;21.08;10.85;;;21.20;51.70;;;;;;5063119;28;20113;-72
2021/09/24 08:09:32;;;;;;;12.35;5.85;;;20.80;52.90;;;;;;5045394;28;20028;-73
2021/09/24 08:11:58;;;;;;;27.83;14.07;;;21.20;51.90;;;;;;5050221;28;20032;-73
2021/09/24 08:14:23;;;;;;;19.13;9.15;;;21.20;52.30;;;;;;5047703;28;20036;-65
2021/09/24 08:16:49;;;;;;;18.23;9.25;;;21.80;51.40;;;;;;5051717;28;20028;-67
2021/09/24 08:19:15;;;;;;;8.10;3.17;;;22.10;50.00;;;;;;5048533;28;20494;-67
2021/09/24 08:21:40;;;;;;;15.20;7.72;;;22.00;48.80;;;;;;5048868;28;20040;-67
2021/09/24 08:24:06;;;;;;;10.13;4.80;;;21.90;50.00;;;;;;5046221;28;20028;-66
2021/09/24 08:26:32;;;;;;;6.13;2.38;;;21.80;50.00;;;;;;5050290;28;20079;-66
2021/09/24 08:28:57;;;;;;;10.35;5.03;;;21.50;50.50;;;;;;5045818;28;20169;-67
2021/09/24 08:31:23;;;;;;;11.77;4.18;;;21.50;51.40;;;;;;5046277;28;20048;-67
2021/09/24 08:33:48;;;;;;;7.28;2.72;;;21.60;50.90;;;;;;5046651;28;20021;-66
2021/09/24 08:36:15;;;;;;;11.77;4.40;;;21.50;50.10;;;;;;5049702;28;20025;-66
2021/09/24 08:38:41;;;;;;;10.85;5.03;;;21.80;49.30;;;;;;5048174;28;20029;-66
2021/09/24 08:41:07;;;;;;;8.70;2.70;;;21.50;49.90;;;;;;5050393;28;20087;-67
2021/09/24 08:43:33;;;;;;;5.22;2.25;;;21.50;50.90;;;;;;5045630;28;20440;-68
2021/09/24 08:46:00;;;;;;;7.13;2.33;;;21.60;49.70;;;;;;5046666;28;20540;-69
2021/09/24 08:48:26;;;;;;;7.80;3.67;;;21.70;49.60;;;;;;5057797;28;20116;-68
2021/09/24 08:50:52;;;;;;;7.30;2.97;;;21.90;49.80;;;;;;5047685;28;20029;-67
2021/09/24 08:53:21;;;;;;;4.28;1.00;;;22.10;49.40;;;;;;5045993;28;20036;-69
2021/09/24 08:55:47;;;;;;;5.72;1.92;;;22.20;48.70;;;;;;5046347;28;20025;-68
2021/09/24 08:58:13;;;;;;;4.10;2.05;;;22.50;47.80;;;;;;5046817;28;20096;-68
2021/09/24 09:00:42;;;;;;;5.78;2.85;;;22.80;47.20;;;;;;5047422;28;20021;-70
2021/09/24 09:03:15;;;;;;;5.72;1.75;;;22.90;46.10;;;;;;5049145;28;20024;-71
2021/09/24 09:05:42;;;;;;;2.28;1.30;;;23.40;45.00;;;;;;5073828;28;20070;-70
2021/09/24 09:08:20;;;;;;;9.93;2.58;;;23.30;45.60;;;;;;5046148;28;20097;-72
2021/09/24 09:11:01;;;;;;;7.47;2.45;;;23.20;45.80;;;;;;5048859;28;20037;-70
2021/09/24 09:13:31;;;;;;;5.25;2.95;;;23.00;45.90;;;;;;5046591;28;20029;-72
2021/09/24 09:16:00;;;;;;;4.53;2.15;;;22.40;47.00;;;;;;5047083;28;20029;-71
2021/09/24 09:18:27;;;;;;;5.63;2.05;;;22.10;48.30;;;;;;5048655;28;20090;-71
2021/09/24 09:20:53;;;;;;;4.53;1.55;;;21.50;49.60;;;;;;5046557;28;20100;-71
2021/09/24 09:23:21;;;;;;;12.70;5.80;;;21.40;49.70;;;;;;5059870;28;20024;-71
2021/09/24 09:25:49;;;;;;;44.47;26.63;;;21.00;50.50;;;;;;5046706;28;20547;-72
2021/09/24 09:28:40;;;;;;;10.32;4.82;;;20.70;52.10;;;;;;5049686;28;20092;-71
2021/09/24 09:31:27;;;;;;;20.00;10.50;;;20.40;53.20;;;;;;5080245;28;20486;-71
2021/09/24 09:33:55;;;;;;;13.27;6.50;;;20.60;52.20;;;;;;5052935;28;20037;-72
2021/09/24 09:36:28;;;;;;;22.50;13.57;;;20.70;51.60;;;;;;5062499;28;20024;-71
2021/09/24 09:38:55;;;;;;;13.40;6.30;;;20.90;51.20;;;;;;5065719;28;20521;-73
2021/09/24 09:41:22;;;;;;;18.77;10.05;;;20.90;50.50;;;;;;5051228;28;20051;-70
2021/09/24 09:43:51;;;;;;;13.98;6.38;;;21.00;50.20;;;;;;5061860;28;20137;-72
2021/09/24 09:46:20;;;;;;;31.85;18.80;;;21.40;49.80;;;;;;5055315;28;20647;-71
2021/09/24 09:49:01;;;;;;;19.67;11.48;;;21.60;49.70;;;;;;5055920;28;20029;-69
2021/09/24 09:51:27;;;;;;;24.25;13.27;;;21.90;50.10;;;;;;5057985;28;20047;-66
2021/09/24 09:53:53;;;;;;;14.68;5.70;;;22.20;49.20;;;;;;5053516;28;20032;-66
2021/09/24 09:56:19;;;;;;;23.83;14.80;;;22.50;47.70;;;;;;5051918;28;20064;-66
2021/09/24 09:58:45;;;;;;;9.85;5.15;;;22.50;47.70;;;;;;5049594;28;20060;-67
2021/09/24 10:01:15;;;;;;;10.50;6.00;;;22.30;47.60;;;;;;5063739;28;20036;-68
2021/09/24 10:03:50;;;;;;;19.05;10.60;;;21.90;48.40;;;;;;5062739;28;20074;-71
2021/09/24 10:06:35;;;;;;;18.73;10.32;;;21.50;50.30;;;;;;5057500;28;20071;-71
2021/09/24 10:09:04;;;;;;;16.58;6.20;;;21.50;50.20;;;;;;5052021;28;20043;-68
2021/09/24 10:11:38;;;;;;;62.78;41.40;;;21.40;50.70;;;;;;5050707;28;20036;-70
2021/09/24 10:14:12;;;;;;;16.65;10.23;;;21.30;50.90;;;;;;5062743;28;20037;-70
2021/09/24 10:16:39;;;;;;;21.77;11.82;;;21.10;51.20;;;;;;5059503;28;20061;-70
2021/09/24 10:19:05;;;;;;;12.52;6.57;;;20.90;52.20;;;;;;5059715;28;20087;-67
2021/09/24 10:21:31;;;;;;;29.35;18.52;;;20.70;52.10;;;;;;5050959;28;20032;-68
2021/09/24 10:23:57;;;;;;;9.82;5.63;;;20.90;51.70;;;;;;5063595;28;20033;-69
2021/09/24 10:26:39;;;;;;;5.82;3.40;;;21.00;51.70;;;;;;5065382;28;20078;-71
2021/09/24 10:29:13;;;;;;;15.48;8.73;;;20.90;51.10;;;;;;5050375;28;20025;-70
2021/09/24 10:31:48;;;;;;;10.85;6.43;;;20.90;51.40;;;;;;5048654;28;20052;-71
2021/09/24 10:34:28;;;;;;;13.93;8.82;;;21.00;51.10;;;;;;5073830;28;20124;-72
2021/09/24 10:36:55;;;;;;;10.68;5.10;;;21.10;50.30;;;;;;5064599;28;20025;-70
2021/09/24 10:39:42;;;;;;;13.43;7.40;;;21.00;50.80;;;;;;5064192;28;20032;-70
2021/09/24 10:42:16;;;;;;;22.17;13.77;;;21.00;51.90;;;;;;5056634;28;20041;-69
2021/09/24 10:45:06;;;;;;;11.73;6.13;;;21.20;50.60;;;;;;5060098;28;20061;-71
2021/09/24 10:47:50;;;;;;;5.50;1.90;;;21.40;49.70;;;;;;5064043;28;20064;-71
2021/09/24 10:50:37;;;;;;;5.97;2.90;;;21.60;50.10;;;;;;5062617;28;20119;-70
2021/09/24 10:53:18;;;;;;;146.23;98.05;;;21.80;48.70;;;;;;5053053;28;20363;-71
2021/09/24 10:56:06;;;;;;;28.87;18.20;;;21.80;49.90;;;;;;5057342;28;20028;-70
2021/09/24 10:58:32;;;;;;;4.07;1.58;;;21.90;49.50;;;;;;5043495;28;20299;-70
2021/09/24 11:01:11;;;;;;;5.60;3.05;;;22.00;48.50;;;;;;5059752;28;20071;-70
2021/09/24 11:03:53;;;;;;;12.15;7.47;;;21.80;48.20;;;;;;5059410;28;20667;-69
2021/09/24 11:06:40;;;;;;;3.65;2.03;;;21.70;49.10;;;;;;5057666;28;20505;-72
2021/09/24 11:09:10;;;;;;;13.65;7.80;;;21.50;49.60;;;;;;5051227;28;20032;-71
2021/09/24 11:11:37;;;;;;;17.27;9.93;;;;;;;;;;5060261;28;20055;-69
2021/09/24 11:14:24;;;;;;;10.40;5.97;;;20.70;51.70;;;;;;5052946;28;20043;-72
2021/09/24 11:16:50;;;;;;;9.75;5.97;;;20.40;52.40;;;;;;5056233;28;20108;-70
2021/09/24 11:19:35;;;;;;;35.40;20.38;;;20.30;53.00;;;;;;5058086;28;20108;-68
2021/09/24 11:22:06;;;;;;;38.78;21.63;;;20.40;53.00;;;;;;5051382;28;20017;-70
2021/09/24 11:24:35;;;;;;;7.53;4.40;;;20.60;53.10;;;;;;5058509;28;20100;-70
2021/09/24 11:27:03;;;;;;;7.35;3.85;;;20.70;53.00;;;;;;5062359;28;20051;-75
2021/09/24 11:29:30;;;;;;;57.45;35.90;;;20.50;53.20;;;;;;5049271;28;20029;-70
2021/09/24 11:32:01;;;;;;;16.08;8.52;;;20.30;56.50;;;;;;5051455;28;20028;-70
2021/09/24 11:34:33;;;;;;;13.50;8.27;;;20.30;54.60;;;;;;5050269;28;20567;-70
2021/09/24 11:37:04;;;;;;;4.43;2.85;;;20.20;54.60;;;;;;5050027;28;20033;-70
2021/09/24 11:39:30;;;;;;;8.68;3.38;;;20.00;55.00;;;;;;5049317;28;20024;-70
2021/09/24 11:42:08;;;;;;;19.25;10.63;;;20.00;56.00;;;;;;5049925;28;20021;-70
2021/09/24 11:44:35;;;;;;;5.03;2.42;;;20.00;56.70;;;;;;5051865;28;20032;-70
2021/09/24 11:47:00;;;;;;;9.35;4.57;;;20.30;56.20;;;;;;5050573;28;20344;-70
2021/09/24 11:49:26;;;;;;;5.93;3.45;;;20.50;55.60;;;;;;5050195;28;20036;-71
2021/09/24 11:52:00;;;;;;;10.40;6.82;;;20.70;55.20;;;;;;5063720;28;20062;-70
2021/09/24 11:54:26;;;;;;;13.25;8.18;;;20.70;54.50;;;;;;5049362;28;20031;-70
2021/09/24 11:56:52;;;;;;;5.43;2.42;;;20.70;55.10;;;;;;5049844;28;20785;-70
2021/09/24 11:59:18;;;;;;;3.20;2.15;;;20.60;54.60;;;;;;5050015;28;20029;-70
2021/09/24 12:01:45;;;;;;;8.65;4.18;;;20.50;55.00;;;;;;5049232;28;20401;-70
2021/09/24 12:04:13;;;;;;;6.80;3.42;;;20.50;55.70;;;;;;5051181;28;20024;-72
2021/09/24 12:06:40;;;;;;;3.38;2.28;;;20.30;55.80;;;;;;5047263;28;20025;-69
2021/09/24 12:09:09;;;;;;;2.92;1.52;;;20.20;56.70;;;;;;5053341;28;20021;-69
2021/09/24 12:11:43;;;;;;;4.10;1.73;;;20.30;56.70;;;;;;5055976;28;20036;-68
2021/09/24 12:14:10;;;;;;;6.18;2.20;;;20.40;57.10;;;;;;5049126;28;20100;-69
2021/09/24 12:16:38;;;;;;;4.03;1.83;;;20.70;56.60;;;;;;5044292;28;20513;-69
2021/09/24 12:19:10;;;;;;;3.63;1.33;;;20.90;55.50;;;;;;5057722;28;20509;-69
2021/09/24 12:21:42;;;;;;;5.20;1.20;;;20.90;55.70;;;;;;5049048;28;20021;-72
2021/09/24 12:24:10;;;;;;;3.58;1.20;;;21.00;55.50;;;;;;5045998;28;20037;-71
2021/09/24 12:26:38;;;;;;;5.60;1.30;;;20.80;56.10;;;;;;5050603;28;20116;-72
2021/09/24 12:29:12;;;;;;;18.42;12.15;;;20.50;56.70;;;;;;5048325;28;20474;-71
2021/09/24 12:31:47;;;;;;;139.38;72.32;;;20.50;57.40;;;;;;5047119;28;20029;-72
2021/09/24 12:34:16;;;;;;;117.32;52.63;;;20.50;57.40;;;;;;5046432;28;20046;-72
2021/09/24 12:36:50;;;;;;;69.07;29.02;;;21.00;56.30;;;;;;5045381;28;20036;-72
2021/09/24 12:39:18;;;;;;;40.75;20.13;;;21.00;55.90;;;;;;5049196;28;20028;-73
2021/09/24 12:41:44;;;;;;;42.50;22.08;;;21.10;55.80;;;;;;5047391;28;20059;-72